sensor_id;sensor_type;location;lat;lon;timestamp;P1;durP1;ratioP1;P2;durP2;ratioP2
11054;SDS011;5580;50.106;8.702;2023-08-24T00:00:41;13.97;;;9.23;;
11054;SDS011;5580;50.106;8.702;2023-08-24T00:03:08;14.07;;;8.77;;
11054;SDS011;5580;50.106;8.702;2023-08-24T00:05:34;18.43;;;9.23;;
11054;SDS011;5580;50.106;8.702;2023-08-24T00:08:04;14.70;;;9.03;;
11054;SDS011;5580;50.106;8.702;2023-08-24T00:10:30;14.53;;;8.60;;
11054;SDS011;5580;50.106;8.702;2023-08-24T00:12:55;14.27;;;9.40;;
11054;SDS011;5580;50.106;8.702;2023-08-24T00:15:21;13.97;;;8.47;;
11054;SDS011;5580;50.106;8.702;2023-08-24T00:17:47;15.97;;;9.50;;
11054;SDS011;5580;50.106;8.702;2023-08-24T00:20:12;13.47;;;9.17;;
11054;SDS011;5580;50.106;8.702;2023-08-24T00:22:38;14.13;;;8.83;;
11054;SDS011;5580;50.106;8.702;2023-08-24T00:25:05;14.43;;;9.20;;
11054;SDS011;5580;50.106;8.702;2023-08-24T00:27:32;13.73;;;8.93;;
11054;SDS011;5580;50.106;8.702;2023-08-24T00:29:58;13.27;;;8.77;;
11054;SDS011;5580;50.106;8.702;2023-08-24T00:32:23;17.93;;;9.27;;
11054;SDS011;5580;50.106;8.702;2023-08-24T00:34:49;15.33;;;9.77;;
11054;SDS011;5580;50.106;8.702;2023-08-24T00:37:15;16.13;;;8.93;;
11054;SDS011;5580;50.106;8.702;2023-08-24T00:39:40;16.90;;;8.90;;
11054;SDS011;5580;50.106;8.702;2023-08-24T00:42:06;13.03;;;8.63;;
11054;SDS011;5580;50.106;8.702;2023-08-24T00:44:32;14.60;;;9.23;;
11054;SDS011;5580;50.106;8.702;2023-08-24T00:46:58;15.67;;;8.57;;
11054;SDS011;5580;50.106;8.702;2023-08-24T00:49:25;13.67;;;8.80;;
11054;SDS011;5580;50.106;8.702;2023-08-24T00:51:51;12.17;;;8.60;;
11054;SDS011;5580;50.106;8.702;2023-08-24T00:54:17;11.33;;;8.30;;
11054;SDS011;5580;50.106;8.702;2023-08-24T00:56:43;13.07;;;9.00;;
11054;SDS011;5580;50.106;8.702;2023-08-24T00:59:09;15.73;;;9.03;;
11054;SDS011;5580;50.106;8.702;2023-08-24T01:01:34;12.37;;;8.80;;
11054;SDS011;5580;50.106;8.702;2023-08-24T01:04:00;13.10;;;8.67;;
11054;SDS011;5580;50.106;8.702;2023-08-24T01:06:27;14.90;;;9.03;;
11054;SDS011;5580;50.106;8.702;2023-08-24T01:08:53;13.00;;;8.67;;
11054;SDS011;5580;50.106;8.702;2023-08-24T01:16:34;14.97;;;8.93;;
11054;SDS011;5580;50.106;8.702;2023-08-24T01:19:05;13.33;;;8.80;;
11054;SDS011;5580;50.106;8.702;2023-08-24T01:21:36;14.27;;;8.70;;
11054;SDS011;5580;50.106;8.702;2023-08-24T01:24:17;14.73;;;8.60;;
11054;SDS011;5580;50.106;8.702;2023-08-24T01:26:48;14.67;;;9.00;;
11054;SDS011;5580;50.106;8.702;2023-08-24T01:29:14;16.87;;;8.37;;
11054;SDS011;5580;50.106;8.702;2023-08-24T01:31:40;12.67;;;8.40;;
11054;SDS011;5580;50.106;8.702;2023-08-24T01:34:06;19.63;;;9.07;;
11054;SDS011;5580;50.106;8.702;2023-08-24T01:36:31;13.60;;;9.10;;
11054;SDS011;5580;50.106;8.702;2023-08-24T01:42:00;14.03;;;8.53;;
11054;SDS011;5580;50.106;8.702;2023-08-24T01:44:30;15.47;;;8.97;;
11054;SDS011;5580;50.106;8.702;2023-08-24T01:47:02;14.27;;;8.50;;
11054;SDS011;5580;50.106;8.702;2023-08-24T01:49:30;13.53;;;8.53;;
11054;SDS011;5580;50.106;8.702;2023-08-24T01:51:58;15.67;;;8.30;;
11054;SDS011;5580;50.106;8.702;2023-08-24T01:54:24;11.87;;;8.27;;
11054;SDS011;5580;50.106;8.702;2023-08-24T01:56:49;12.10;;;8.20;;
11054;SDS011;5580;50.106;8.702;2023-08-24T01:59:15;13.83;;;8.60;;
11054;SDS011;5580;50.106;8.702;2023-08-24T02:01:40;12.93;;;8.23;;
11054;SDS011;5580;50.106;8.702;2023-08-24T02:04:06;13.03;;;8.60;;
11054;SDS011;5580;50.106;8.702;2023-08-24T02:06:32;11.90;;;8.27;;
11054;SDS011;5580;50.106;8.702;2023-08-24T02:08:57;13.20;;;8.70;;
11054;SDS011;5580;50.106;8.702;2023-08-24T02:11:23;12.63;;;8.37;;
11054;SDS011;5580;50.106;8.702;2023-08-24T02:13:48;12.43;;;7.87;;
11054;SDS011;5580;50.106;8.702;2023-08-24T02:16:14;12.33;;;8.33;;
11054;SDS011;5580;50.106;8.702;2023-08-24T02:18:39;11.83;;;7.90;;
11054;SDS011;5580;50.106;8.702;2023-08-24T02:21:08;14.17;;;8.53;;
11054;SDS011;5580;50.106;8.702;2023-08-24T02:23:37;17.03;;;8.47;;
11054;SDS011;5580;50.106;8.702;2023-08-24T02:26:03;13.47;;;8.67;;
11054;SDS011;5580;50.106;8.702;2023-08-24T02:28:29;13.30;;;8.27;;
11054;SDS011;5580;50.106;8.702;2023-08-24T02:30:54;15.13;;;8.83;;
11054;SDS011;5580;50.106;8.702;2023-08-24T02:33:24;13.83;;;8.60;;
11054;SDS011;5580;50.106;8.702;2023-08-24T02:35:50;13.17;;;8.47;;
11054;SDS011;5580;50.106;8.702;2023-08-24T02:38:16;15.47;;;8.50;;
11054;SDS011;5580;50.106;8.702;2023-08-24T02:40:41;14.03;;;8.73;;
11054;SDS011;5580;50.106;8.702;2023-08-24T02:43:07;13.73;;;8.20;;
11054;SDS011;5580;50.106;8.702;2023-08-24T02:45:32;12.73;;;8.13;;
11054;SDS011;5580;50.106;8.702;2023-08-24T02:47:58;12.67;;;7.53;;
11054;SDS011;5580;50.106;8.702;2023-08-24T02:50:23;12.63;;;8.50;;
11054;SDS011;5580;50.106;8.702;2023-08-24T02:52:49;12.63;;;7.93;;
11054;SDS011;5580;50.106;8.702;2023-08-24T02:55:16;13.07;;;7.60;;
11054;SDS011;5580;50.106;8.702;2023-08-24T02:57:42;12.87;;;7.43;;
11054;SDS011;5580;50.106;8.702;2023-08-24T03:00:07;14.73;;;7.93;;
11054;SDS011;5580;50.106;8.702;2023-08-24T03:02:34;13.40;;;7.80;;
11054;SDS011;5580;50.106;8.702;2023-08-24T03:05:01;12.63;;;7.70;;
11054;SDS011;5580;50.106;8.702;2023-08-24T03:07:27;12.53;;;7.50;;
11054;SDS011;5580;50.106;8.702;2023-08-24T03:09:53;14.03;;;7.20;;
11054;SDS011;5580;50.106;8.702;2023-08-24T03:12:18;12.57;;;7.20;;
11054;SDS011;5580;50.106;8.702;2023-08-24T03:14:44;14.97;;;7.17;;
11054;SDS011;5580;50.106;8.702;2023-08-24T03:17:09;14.80;;;7.03;;
11054;SDS011;5580;50.106;8.702;2023-08-24T03:19:35;12.93;;;6.47;;
11054;SDS011;5580;50.106;8.702;2023-08-24T03:22:00;13.50;;;6.37;;
11054;SDS011;5580;50.106;8.702;2023-08-24T03:24:27;11.10;;;6.40;;
11054;SDS011;5580;50.106;8.702;2023-08-24T03:26:52;12.77;;;6.73;;
11054;SDS011;5580;50.106;8.702;2023-08-24T03:29:18;12.20;;;6.87;;
11054;SDS011;5580;50.106;8.702;2023-08-24T03:31:44;13.23;;;6.77;;
11054;SDS011;5580;50.106;8.702;2023-08-24T03:34:09;15.97;;;6.87;;
11054;SDS011;5580;50.106;8.702;2023-08-24T03:36:35;10.80;;;6.30;;
11054;SDS011;5580;50.106;8.702;2023-08-24T03:39:00;13.27;;;6.70;;
11054;SDS011;5580;50.106;8.702;2023-08-24T03:41:26;15.63;;;7.43;;
11054;SDS011;5580;50.106;8.702;2023-08-24T03:43:52;11.37;;;6.70;;
11054;SDS011;5580;50.106;8.702;2023-08-24T03:46:17;11.27;;;7.37;;
11054;SDS011;5580;50.106;8.702;2023-08-24T03:48:43;11.40;;;6.40;;
11054;SDS011;5580;50.106;8.702;2023-08-24T03:51:09;15.43;;;7.33;;
11054;SDS011;5580;50.106;8.702;2023-08-24T03:53:34;13.47;;;7.17;;
11054;SDS011;5580;50.106;8.702;2023-08-24T03:56:00;12.23;;;6.70;;
11054;SDS011;5580;50.106;8.702;2023-08-24T03:58:25;18.30;;;7.27;;
11054;SDS011;5580;50.106;8.702;2023-08-24T04:00:51;12.70;;;6.73;;
11054;SDS011;5580;50.106;8.702;2023-08-24T04:03:19;13.23;;;6.50;;
11054;SDS011;5580;50.106;8.702;2023-08-24T04:05:44;14.30;;;6.67;;
11054;SDS011;5580;50.106;8.702;2023-08-24T04:08:10;13.90;;;6.43;;
11054;SDS011;5580;50.106;8.702;2023-08-24T04:10:37;15.73;;;6.73;;
11054;SDS011;5580;50.106;8.702;2023-08-24T04:13:03;13.43;;;6.73;;
11054;SDS011;5580;50.106;8.702;2023-08-24T04:15:28;15.97;;;6.73;;
11054;SDS011;5580;50.106;8.702;2023-08-24T04:17:54;14.10;;;6.33;;
11054;SDS011;5580;50.106;8.702;2023-08-24T04:20:19;10.00;;;6.40;;
11054;SDS011;5580;50.106;8.702;2023-08-24T04:22:46;16.60;;;6.47;;
11054;SDS011;5580;50.106;8.702;2023-08-24T04:25:11;13.20;;;5.87;;
11054;SDS011;5580;50.106;8.702;2023-08-24T04:27:37;10.20;;;6.00;;
11054;SDS011;5580;50.106;8.702;2023-08-24T04:30:02;9.83;;;5.93;;
11054;SDS011;5580;50.106;8.702;2023-08-24T04:32:28;10.83;;;5.83;;
11054;SDS011;5580;50.106;8.702;2023-08-24T04:34:54;10.23;;;6.23;;
11054;SDS011;5580;50.106;8.702;2023-08-24T04:37:20;10.43;;;5.80;;
11054;SDS011;5580;50.106;8.702;2023-08-24T04:39:45;9.43;;;5.80;;
11054;SDS011;5580;50.106;8.702;2023-08-24T04:42:11;10.60;;;5.93;;
11054;SDS011;5580;50.106;8.702;2023-08-24T04:44:37;10.33;;;5.60;;
11054;SDS011;5580;50.106;8.702;2023-08-24T04:47:02;9.20;;;5.40;;
11054;SDS011;5580;50.106;8.702;2023-08-24T04:49:29;11.37;;;5.67;;
11054;SDS011;5580;50.106;8.702;2023-08-24T04:51:55;12.07;;;5.83;;
11054;SDS011;5580;50.106;8.702;2023-08-24T04:54:21;12.07;;;5.90;;
11054;SDS011;5580;50.106;8.702;2023-08-24T04:56:47;9.23;;;5.40;;
11054;SDS011;5580;50.106;8.702;2023-08-24T04:59:12;14.87;;;5.53;;
11054;SDS011;5580;50.106;8.702;2023-08-24T05:01:38;14.13;;;5.23;;
11054;SDS011;5580;50.106;8.702;2023-08-24T05:04:03;10.87;;;5.70;;
11054;SDS011;5580;50.106;8.702;2023-08-24T05:06:29;11.17;;;5.33;;
11054;SDS011;5580;50.106;8.702;2023-08-24T05:08:55;11.23;;;5.77;;
11054;SDS011;5580;50.106;8.702;2023-08-24T05:11:22;10.43;;;5.77;;
11054;SDS011;5580;50.106;8.702;2023-08-24T05:13:51;8.93;;;5.57;;
11054;SDS011;5580;50.106;8.702;2023-08-24T05:16:16;9.00;;;5.50;;
11054;SDS011;5580;50.106;8.702;2023-08-24T05:18:42;9.27;;;5.17;;
11054;SDS011;5580;50.106;8.702;2023-08-24T05:21:07;10.10;;;5.50;;
11054;SDS011;5580;50.106;8.702;2023-08-24T05:23:33;12.93;;;5.50;;
11054;SDS011;5580;50.106;8.702;2023-08-24T05:26:00;10.77;;;5.60;;
11054;SDS011;5580;50.106;8.702;2023-08-24T05:28:27;13.17;;;5.73;;
11054;SDS011;5580;50.106;8.702;2023-08-24T05:30:54;11.57;;;5.70;;
11054;SDS011;5580;50.106;8.702;2023-08-24T05:33:20;11.60;;;5.90;;
11054;SDS011;5580;50.106;8.702;2023-08-24T05:35:47;10.07;;;5.47;;
11054;SDS011;5580;50.106;8.702;2023-08-24T05:38:13;9.83;;;5.63;;
11054;SDS011;5580;50.106;8.702;2023-08-24T05:40:40;11.00;;;6.00;;
11054;SDS011;5580;50.106;8.702;2023-08-24T05:43:07;9.73;;;5.60;;
11054;SDS011;5580;50.106;8.702;2023-08-24T05:45:33;10.70;;;5.53;;
11054;SDS011;5580;50.106;8.702;2023-08-24T05:47:59;9.43;;;5.53;;
11054;SDS011;5580;50.106;8.702;2023-08-24T05:50:24;10.50;;;5.53;;
11054;SDS011;5580;50.106;8.702;2023-08-24T05:52:50;11.23;;;6.03;;
11054;SDS011;5580;50.106;8.702;2023-08-24T05:55:15;11.37;;;6.00;;
11054;SDS011;5580;50.106;8.702;2023-08-24T05:57:41;10.77;;;6.20;;
11054;SDS011;5580;50.106;8.702;2023-08-24T06:00:07;12.70;;;6.10;;
11054;SDS011;5580;50.106;8.702;2023-08-24T06:02:36;12.33;;;6.10;;
11054;SDS011;5580;50.106;8.702;2023-08-24T06:05:02;12.77;;;6.17;;
11054;SDS011;5580;50.106;8.702;2023-08-24T06:07:28;15.17;;;6.60;;
11054;SDS011;5580;50.106;8.702;2023-08-24T06:09:55;14.50;;;6.50;;
11054;SDS011;5580;50.106;8.702;2023-08-24T06:12:21;15.80;;;6.70;;
11054;SDS011;5580;50.106;8.702;2023-08-24T06:14:47;18.77;;;6.60;;
11054;SDS011;5580;50.106;8.702;2023-08-24T06:17:12;11.30;;;6.10;;
11054;SDS011;5580;50.106;8.702;2023-08-24T06:19:38;15.00;;;6.50;;
11054;SDS011;5580;50.106;8.702;2023-08-24T06:22:03;23.27;;;6.83;;
11054;SDS011;5580;50.106;8.702;2023-08-24T06:24:29;14.93;;;6.30;;
11054;SDS011;5580;50.106;8.702;2023-08-24T06:26:55;14.67;;;6.40;;
11054;SDS011;5580;50.106;8.702;2023-08-24T06:29:20;16.70;;;6.20;;
11054;SDS011;5580;50.106;8.702;2023-08-24T06:31:46;12.53;;;6.33;;
11054;SDS011;5580;50.106;8.702;2023-08-24T06:34:11;12.77;;;6.03;;
11054;SDS011;5580;50.106;8.702;2023-08-24T06:36:37;11.33;;;6.23;;
11054;SDS011;5580;50.106;8.702;2023-08-24T06:39:03;13.97;;;6.37;;
11054;SDS011;5580;50.106;8.702;2023-08-24T06:41:32;13.87;;;6.30;;
11054;SDS011;5580;50.106;8.702;2023-08-24T06:43:59;19.03;;;6.80;;
11054;SDS011;5580;50.106;8.702;2023-08-24T06:46:24;16.03;;;6.73;;
11054;SDS011;5580;50.106;8.702;2023-08-24T06:48:50;19.60;;;7.33;;
11054;SDS011;5580;50.106;8.702;2023-08-24T06:51:15;17.20;;;7.13;;
11054;SDS011;5580;50.106;8.702;2023-08-24T06:53:41;14.53;;;7.20;;
11054;SDS011;5580;50.106;8.702;2023-08-24T06:56:07;16.97;;;7.30;;
11054;SDS011;5580;50.106;8.702;2023-08-24T06:58:34;17.83;;;8.00;;
11054;SDS011;5580;50.106;8.702;2023-08-24T07:00:59;18.73;;;7.67;;
11054;SDS011;5580;50.106;8.702;2023-08-24T07:03:25;17.73;;;7.13;;
11054;SDS011;5580;50.106;8.702;2023-08-24T07:05:51;13.33;;;6.80;;
11054;SDS011;5580;50.106;8.702;2023-08-24T07:08:17;17.63;;;6.67;;
11054;SDS011;5580;50.106;8.702;2023-08-24T07:10:43;12.17;;;6.43;;
11054;SDS011;5580;50.106;8.702;2023-08-24T07:13:08;10.43;;;6.10;;
11054;SDS011;5580;50.106;8.702;2023-08-24T07:15:34;9.73;;;6.40;;
11054;SDS011;5580;50.106;8.702;2023-08-24T07:18:03;10.23;;;6.60;;
11054;SDS011;5580;50.106;8.702;2023-08-24T07:20:31;10.73;;;6.30;;
11054;SDS011;5580;50.106;8.702;2023-08-24T07:22:58;15.00;;;6.47;;
11054;SDS011;5580;50.106;8.702;2023-08-24T07:25:23;17.67;;;6.90;;
11054;SDS011;5580;50.106;8.702;2023-08-24T07:27:49;16.47;;;6.80;;
11054;SDS011;5580;50.106;8.702;2023-08-24T07:30:15;13.93;;;6.13;;
11054;SDS011;5580;50.106;8.702;2023-08-24T07:32:40;19.23;;;7.13;;
11054;SDS011;5580;50.106;8.702;2023-08-24T07:35:07;13.60;;;6.23;;
11054;SDS011;5580;50.106;8.702;2023-08-24T07:37:32;16.70;;;6.90;;
11054;SDS011;5580;50.106;8.702;2023-08-24T07:39:58;14.37;;;6.60;;
11054;SDS011;5580;50.106;8.702;2023-08-24T07:42:24;14.90;;;6.43;;
11054;SDS011;5580;50.106;8.702;2023-08-24T07:44:49;13.80;;;6.37;;
11054;SDS011;5580;50.106;8.702;2023-08-24T07:47:15;13.37;;;6.40;;
11054;SDS011;5580;50.106;8.702;2023-08-24T07:49:41;13.83;;;6.00;;
11054;SDS011;5580;50.106;8.702;2023-08-24T07:52:12;10.70;;;6.13;;
11054;SDS011;5580;50.106;8.702;2023-08-24T07:54:37;14.07;;;6.77;;
11054;SDS011;5580;50.106;8.702;2023-08-24T07:57:04;10.50;;;6.17;;
11054;SDS011;5580;50.106;8.702;2023-08-24T07:59:30;10.73;;;6.17;;
11054;SDS011;5580;50.106;8.702;2023-08-24T08:01:56;14.47;;;6.63;;
11054;SDS011;5580;50.106;8.702;2023-08-24T08:04:22;15.60;;;6.77;;
11054;SDS011;5580;50.106;8.702;2023-08-24T08:06:47;13.63;;;6.73;;
11054;SDS011;5580;50.106;8.702;2023-08-24T08:09:13;13.20;;;6.40;;
11054;SDS011;5580;50.106;8.702;2023-08-24T08:11:38;10.87;;;6.27;;
11054;SDS011;5580;50.106;8.702;2023-08-24T08:14:04;15.53;;;6.37;;
11054;SDS011;5580;50.106;8.702;2023-08-24T08:16:30;14.67;;;7.13;;
11054;SDS011;5580;50.106;8.702;2023-08-24T08:18:55;18.83;;;6.60;;
11054;SDS011;5580;50.106;8.702;2023-08-24T08:21:21;11.03;;;6.20;;
11054;SDS011;5580;50.106;8.702;2023-08-24T08:23:48;13.53;;;6.40;;
11054;SDS011;5580;50.106;8.702;2023-08-24T08:26:14;11.50;;;6.50;;
11054;SDS011;5580;50.106;8.702;2023-08-24T08:28:41;14.57;;;6.77;;
11054;SDS011;5580;50.106;8.702;2023-08-24T08:31:07;12.50;;;6.60;;
11054;SDS011;5580;50.106;8.702;2023-08-24T08:33:32;11.03;;;6.30;;
11054;SDS011;5580;50.106;8.702;2023-08-24T08:35:58;13.80;;;6.27;;
11054;SDS011;5580;50.106;8.702;2023-08-24T08:38:24;11.67;;;6.80;;
11054;SDS011;5580;50.106;8.702;2023-08-24T08:41:02;13.10;;;6.60;;
11054;SDS011;5580;50.106;8.702;2023-08-24T08:43:29;12.47;;;6.60;;
11054;SDS011;5580;50.106;8.702;2023-08-24T08:45:58;13.67;;;6.17;;
11054;SDS011;5580;50.106;8.702;2023-08-24T08:48:25;13.23;;;5.90;;
11054;SDS011;5580;50.106;8.702;2023-08-24T08:50:51;14.93;;;6.77;;
11054;SDS011;5580;50.106;8.702;2023-08-24T08:53:20;13.03;;;6.50;;
11054;SDS011;5580;50.106;8.702;2023-08-24T08:55:47;14.70;;;6.47;;
11054;SDS011;5580;50.106;8.702;2023-08-24T08:58:15;13.83;;;6.77;;
11054;SDS011;5580;50.106;8.702;2023-08-24T09:00:41;16.13;;;7.37;;
11054;SDS011;5580;50.106;8.702;2023-08-24T09:03:07;12.33;;;6.20;;
11054;SDS011;5580;50.106;8.702;2023-08-24T09:05:34;11.13;;;6.20;;
11054;SDS011;5580;50.106;8.702;2023-08-24T09:08:02;12.97;;;6.40;;
11054;SDS011;5580;50.106;8.702;2023-08-24T09:10:29;14.03;;;6.90;;
11054;SDS011;5580;50.106;8.702;2023-08-24T09:12:56;11.87;;;6.80;;
11054;SDS011;5580;50.106;8.702;2023-08-24T09:15:25;14.90;;;7.33;;
11054;SDS011;5580;50.106;8.702;2023-08-24T09:17:52;13.03;;;6.30;;
11054;SDS011;5580;50.106;8.702;2023-08-24T09:20:20;12.07;;;6.10;;
11054;SDS011;5580;50.106;8.702;2023-08-24T09:22:45;11.77;;;5.90;;
11054;SDS011;5580;50.106;8.702;2023-08-24T09:25:11;11.87;;;5.93;;
11054;SDS011;5580;50.106;8.702;2023-08-24T09:27:37;13.10;;;6.10;;
11054;SDS011;5580;50.106;8.702;2023-08-24T09:30:03;11.43;;;5.60;;
11054;SDS011;5580;50.106;8.702;2023-08-24T09:32:31;12.67;;;6.23;;
11054;SDS011;5580;50.106;8.702;2023-08-24T09:35:02;12.07;;;6.40;;
11054;SDS011;5580;50.106;8.702;2023-08-24T09:37:36;15.50;;;6.73;;
11054;SDS011;5580;50.106;8.702;2023-08-24T09:40:06;13.90;;;6.10;;
11054;SDS011;5580;50.106;8.702;2023-08-24T09:42:39;10.83;;;6.00;;
11054;SDS011;5580;50.106;8.702;2023-08-24T09:45:07;14.07;;;6.30;;
11054;SDS011;5580;50.106;8.702;2023-08-24T09:47:37;15.67;;;6.63;;
11054;SDS011;5580;50.106;8.702;2023-08-24T09:50:03;14.93;;;6.77;;
11054;SDS011;5580;50.106;8.702;2023-08-24T09:52:33;17.03;;;6.07;;
11054;SDS011;5580;50.106;8.702;2023-08-24T09:55:03;14.00;;;6.70;;
11054;SDS011;5580;50.106;8.702;2023-08-24T09:57:38;13.20;;;6.27;;
11054;SDS011;5580;50.106;8.702;2023-08-24T10:00:08;15.43;;;6.47;;
11054;SDS011;5580;50.106;8.702;2023-08-24T10:02:47;15.47;;;7.10;;
11054;SDS011;5580;50.106;8.702;2023-08-24T10:05:22;10.80;;;5.90;;
11054;SDS011;5580;50.106;8.702;2023-08-24T10:07:52;11.23;;;6.23;;
11054;SDS011;5580;50.106;8.702;2023-08-24T10:10:19;11.63;;;6.60;;
11054;SDS011;5580;50.106;8.702;2023-08-24T10:12:47;13.97;;;6.50;;
11054;SDS011;5580;50.106;8.702;2023-08-24T10:15:34;15.77;;;6.50;;
11054;SDS011;5580;50.106;8.702;2023-08-24T10:18:01;14.77;;;6.70;;
11054;SDS011;5580;50.106;8.702;2023-08-24T10:20:28;19.93;;;6.30;;
11054;SDS011;5580;50.106;8.702;2023-08-24T10:22:54;11.90;;;6.77;;
11054;SDS011;5580;50.106;8.702;2023-08-24T10:25:22;11.10;;;6.87;;
11054;SDS011;5580;50.106;8.702;2023-08-24T10:27:49;11.60;;;6.43;;
11054;SDS011;5580;50.106;8.702;2023-08-24T10:30:16;12.67;;;6.40;;
11054;SDS011;5580;50.106;8.702;2023-08-24T10:32:44;11.47;;;6.40;;
11054;SDS011;5580;50.106;8.702;2023-08-24T10:35:10;17.40;;;7.20;;
11054;SDS011;5580;50.106;8.702;2023-08-24T10:37:36;26.83;;;9.43;;
11054;SDS011;5580;50.106;8.702;2023-08-24T10:40:02;14.47;;;7.03;;
11054;SDS011;5580;50.106;8.702;2023-08-24T10:42:43;10.23;;;6.20;;
11054;SDS011;5580;50.106;8.702;2023-08-24T10:45:11;14.17;;;6.67;;
11054;SDS011;5580;50.106;8.702;2023-08-24T10:47:45;15.10;;;7.53;;
11054;SDS011;5580;50.106;8.702;2023-08-24T10:50:11;11.73;;;6.70;;
11054;SDS011;5580;50.106;8.702;2023-08-24T10:52:38;16.87;;;6.50;;
11054;SDS011;5580;50.106;8.702;2023-08-24T10:55:22;10.03;;;6.47;;
11054;SDS011;5580;50.106;8.702;2023-08-24T10:57:55;10.73;;;6.47;;
11054;SDS011;5580;50.106;8.702;2023-08-24T11:00:25;11.83;;;6.70;;
11054;SDS011;5580;50.106;8.702;2023-08-24T11:02:56;12.90;;;6.50;;
11054;SDS011;5580;50.106;8.702;2023-08-24T11:05:23;10.53;;;6.43;;
11054;SDS011;5580;50.106;8.702;2023-08-24T11:07:53;13.63;;;6.70;;
11054;SDS011;5580;50.106;8.702;2023-08-24T11:10:24;10.57;;;6.53;;
11054;SDS011;5580;50.106;8.702;2023-08-24T11:18:11;11.90;;;7.13;;
11054;SDS011;5580;50.106;8.702;2023-08-24T11:23:21;11.63;;;6.40;;
11054;SDS011;5580;50.106;8.702;2023-08-24T11:25:49;10.70;;;6.30;;
11054;SDS011;5580;50.106;8.702;2023-08-24T11:28:20;11.83;;;6.40;;
11054;SDS011;5580;50.106;8.702;2023-08-24T11:30:46;9.43;;;6.50;;
11054;SDS011;5580;50.106;8.702;2023-08-24T11:33:12;11.90;;;7.00;;
11054;SDS011;5580;50.106;8.702;2023-08-24T11:35:40;11.27;;;7.10;;
11054;SDS011;5580;50.106;8.702;2023-08-24T11:38:07;12.00;;;6.70;;
11054;SDS011;5580;50.106;8.702;2023-08-24T11:40:33;9.70;;;6.50;;
11054;SDS011;5580;50.106;8.702;2023-08-24T11:42:58;10.93;;;6.43;;
11054;SDS011;5580;50.106;8.702;2023-08-24T11:45:29;14.00;;;6.70;;
11054;SDS011;5580;50.106;8.702;2023-08-24T11:48:00;11.37;;;6.93;;
11054;SDS011;5580;50.106;8.702;2023-08-24T11:50:26;11.10;;;6.03;;
11054;SDS011;5580;50.106;8.702;2023-08-24T11:52:52;8.83;;;6.30;;
11054;SDS011;5580;50.106;8.702;2023-08-24T11:55:18;10.63;;;6.27;;
11054;SDS011;5580;50.106;8.702;2023-08-24T11:57:45;9.87;;;6.13;;
11054;SDS011;5580;50.106;8.702;2023-08-24T12:00:11;9.57;;;6.00;;
11054;SDS011;5580;50.106;8.702;2023-08-24T12:02:38;12.13;;;6.20;;
11054;SDS011;5580;50.106;8.702;2023-08-24T12:05:07;9.60;;;5.97;;
11054;SDS011;5580;50.106;8.702;2023-08-24T12:07:44;10.20;;;5.80;;
11054;SDS011;5580;50.106;8.702;2023-08-24T12:10:10;12.53;;;6.17;;
11054;SDS011;5580;50.106;8.702;2023-08-24T12:12:37;9.20;;;6.00;;
11054;SDS011;5580;50.106;8.702;2023-08-24T12:15:03;8.13;;;5.77;;
11054;SDS011;5580;50.106;8.702;2023-08-24T12:17:29;7.93;;;5.90;;
11054;SDS011;5580;50.106;8.702;2023-08-24T12:19:58;9.67;;;6.03;;
11054;SDS011;5580;50.106;8.702;2023-08-24T12:22:31;13.27;;;6.43;;
11054;SDS011;5580;50.106;8.702;2023-08-24T12:24:57;9.68;;;5.85;;
11054;SDS011;5580;50.106;8.702;2023-08-24T12:27:23;9.67;;;6.13;;
11054;SDS011;5580;50.106;8.702;2023-08-24T12:29:51;11.27;;;6.28;;
11054;SDS011;5580;50.106;8.702;2023-08-24T12:32:17;8.70;;;5.80;;
11054;SDS011;5580;50.106;8.702;2023-08-24T12:34:50;8.25;;;5.53;;
11054;SDS011;5580;50.106;8.702;2023-08-24T12:37:16;7.40;;;5.70;;
11054;SDS011;5580;50.106;8.702;2023-08-24T12:39:42;7.75;;;5.60;;
11054;SDS011;5580;50.106;8.702;2023-08-24T12:42:08;7.63;;;5.53;;
11054;SDS011;5580;50.106;8.702;2023-08-24T12:44:33;10.70;;;5.57;;
11054;SDS011;5580;50.106;8.702;2023-08-24T12:47:01;7.93;;;5.70;;
11054;SDS011;5580;50.106;8.702;2023-08-24T12:49:27;9.73;;;5.78;;
11054;SDS011;5580;50.106;8.702;2023-08-24T12:51:53;12.98;;;5.68;;
11054;SDS011;5580;50.106;8.702;2023-08-24T12:54:19;8.93;;;5.63;;
11054;SDS011;5580;50.106;8.702;2023-08-24T12:56:44;11.18;;;5.68;;
11054;SDS011;5580;50.106;8.702;2023-08-24T12:59:10;9.55;;;5.55;;
11054;SDS011;5580;50.106;8.702;2023-08-24T13:01:36;9.95;;;5.53;;
11054;SDS011;5580;50.106;8.702;2023-08-24T13:04:03;7.07;;;5.47;;
11054;SDS011;5580;50.106;8.702;2023-08-24T13:06:29;8.18;;;5.60;;
11054;SDS011;5580;50.106;8.702;2023-08-24T13:08:54;8.70;;;5.60;;
11054;SDS011;5580;50.106;8.702;2023-08-24T13:11:21;8.10;;;5.63;;
11054;SDS011;5580;50.106;8.702;2023-08-24T13:13:47;11.37;;;5.67;;
11054;SDS011;5580;50.106;8.702;2023-08-24T13:16:12;9.27;;;5.63;;
11054;SDS011;5580;50.106;8.702;2023-08-24T13:18:38;8.82;;;5.82;;
11054;SDS011;5580;50.106;8.702;2023-08-24T13:21:04;10.35;;;5.82;;
11054;SDS011;5580;50.106;8.702;2023-08-24T13:23:29;9.07;;;5.80;;
11054;SDS011;5580;50.106;8.702;2023-08-24T13:25:57;8.97;;;5.53;;
11054;SDS011;5580;50.106;8.702;2023-08-24T13:28:23;10.27;;;5.88;;
11054;SDS011;5580;50.106;8.702;2023-08-24T13:30:48;12.05;;;5.97;;
11054;SDS011;5580;50.106;8.702;2023-08-24T13:33:14;13.23;;;6.28;;
11054;SDS011;5580;50.106;8.702;2023-08-24T13:35:40;11.77;;;5.70;;
11054;SDS011;5580;50.106;8.702;2023-08-24T13:38:05;14.60;;;5.97;;
11054;SDS011;5580;50.106;8.702;2023-08-24T13:40:31;14.18;;;6.03;;
11054;SDS011;5580;50.106;8.702;2023-08-24T13:42:57;11.07;;;5.67;;
11054;SDS011;5580;50.106;8.702;2023-08-24T13:45:22;10.20;;;5.55;;
11054;SDS011;5580;50.106;8.702;2023-08-24T13:47:48;9.15;;;5.90;;
11054;SDS011;5580;50.106;8.702;2023-08-24T13:50:13;9.18;;;5.68;;
11054;SDS011;5580;50.106;8.702;2023-08-24T13:52:39;9.07;;;6.30;;
11054;SDS011;5580;50.106;8.702;2023-08-24T13:55:05;8.68;;;5.80;;
11054;SDS011;5580;50.106;8.702;2023-08-24T13:57:31;10.93;;;6.03;;
11054;SDS011;5580;50.106;8.702;2023-08-24T13:59:57;12.25;;;6.00;;
11054;SDS011;5580;50.106;8.702;2023-08-24T14:02:22;10.82;;;6.03;;
11054;SDS011;5580;50.106;8.702;2023-08-24T14:04:48;10.88;;;6.00;;
11054;SDS011;5580;50.106;8.702;2023-08-24T14:07:13;9.15;;;5.93;;
11054;SDS011;5580;50.106;8.702;2023-08-24T14:09:39;12.50;;;6.07;;
11054;SDS011;5580;50.106;8.702;2023-08-24T14:12:04;8.35;;;5.72;;
11054;SDS011;5580;50.106;8.702;2023-08-24T14:14:30;8.98;;;6.00;;
11054;SDS011;5580;50.106;8.702;2023-08-24T14:16:56;10.65;;;5.93;;
11054;SDS011;5580;50.106;8.702;2023-08-24T14:19:22;11.98;;;5.93;;
11054;SDS011;5580;50.106;8.702;2023-08-24T14:21:48;12.00;;;6.13;;
11054;SDS011;5580;50.106;8.702;2023-08-24T14:24:14;8.02;;;5.72;;
11054;SDS011;5580;50.106;8.702;2023-08-24T14:26:39;10.60;;;5.95;;
11054;SDS011;5580;50.106;8.702;2023-08-24T14:29:10;9.43;;;6.40;;
11054;SDS011;5580;50.106;8.702;2023-08-24T14:31:36;11.38;;;6.00;;
11054;SDS011;5580;50.106;8.702;2023-08-24T14:34:02;10.18;;;5.45;;
11054;SDS011;5580;50.106;8.702;2023-08-24T14:36:28;10.95;;;5.65;;
11054;SDS011;5580;50.106;8.702;2023-08-24T14:38:54;8.05;;;5.68;;
11054;SDS011;5580;50.106;8.702;2023-08-24T14:41:19;9.65;;;5.80;;
11054;SDS011;5580;50.106;8.702;2023-08-24T14:43:45;10.57;;;6.20;;
11054;SDS011;5580;50.106;8.702;2023-08-24T14:46:11;11.88;;;6.28;;
11054;SDS011;5580;50.106;8.702;2023-08-24T14:48:37;14.13;;;6.05;;
11054;SDS011;5580;50.106;8.702;2023-08-24T14:51:04;10.97;;;6.57;;
11054;SDS011;5580;50.106;8.702;2023-08-24T14:53:29;9.75;;;6.18;;
11054;SDS011;5580;50.106;8.702;2023-08-24T14:55:55;10.18;;;6.28;;
11054;SDS011;5580;50.106;8.702;2023-08-24T14:58:22;13.02;;;6.32;;
11054;SDS011;5580;50.106;8.702;2023-08-24T15:00:49;9.63;;;5.85;;
11054;SDS011;5580;50.106;8.702;2023-08-24T15:03:16;10.17;;;6.33;;